sensor_id;sensor_type;location;lat;lon;timestamp;temperature;humidity
22035;DHT22;11181;51.002;4.356;2023-03-21T00:01:49;12.50;99.90
22035;DHT22;11181;51.002;4.356;2023-03-21T00:04:17;12.50;99.90
22035;DHT22;11181;51.002;4.356;2023-03-21T00:06:43;12.50;99.90
22035;DHT22;11181;51.002;4.356;2023-03-21T00:09:11;12.50;99.90
22035;DHT22;11181;51.002;4.356;2023-03-21T00:11:38;12.50;99.90
22035;DHT22;11181;51.002;4.356;2023-03-21T00:14:05;12.50;99.90
22035;DHT22;11181;51.002;4.356;2023-03-21T00:16:35;12.40;99.90
22035;DHT22;11181;51.002;4.356;2023-03-21T00:19:02;12.30;99.90
22035;DHT22;11181;51.002;4.356;2023-03-21T00:21:31;12.30;99.90
22035;DHT22;11181;51.002;4.356;2023-03-21T00:23:58;12.30;99.90
22035;DHT22;11181;51.002;4.356;2023-03-21T00:26:25;12.30;99.90
22035;DHT22;11181;51.002;4.356;2023-03-21T00:28:52;12.30;99.90
22035;DHT22;11181;51.002;4.356;2023-03-21T00:31:19;12.30;99.90
22035;DHT22;11181;51.002;4.356;2023-03-21T00:33:48;12.30;99.90
22035;DHT22;11181;51.002;4.356;2023-03-21T00:36:15;12.40;99.90
22035;DHT22;11181;51.002;4.356;2023-03-21T00:38:42;12.50;99.90
22035;DHT22;11181;51.002;4.356;2023-03-21T00:41:10;12.60;99.90
22035;DHT22;11181;51.002;4.356;2023-03-21T00:43:39;12.70;99.90
22035;DHT22;11181;51.002;4.356;2023-03-21T00:46:06;12.70;99.90
22035;DHT22;11181;51.002;4.356;2023-03-21T00:48:33;12.60;99.90
22035;DHT22;11181;51.002;4.356;2023-03-21T00:51:09;12.70;99.90
22035;DHT22;11181;51.002;4.356;2023-03-21T00:53:37;12.70;99.90
22035;DHT22;11181;51.002;4.356;2023-03-21T00:56:04;12.70;99.90
22035;DHT22;11181;51.002;4.356;2023-03-21T00:58:31;12.70;99.90
22035;DHT22;11181;51.002;4.356;2023-03-21T01:00:58;12.70;99.90
22035;DHT22;11181;51.002;4.356;2023-03-21T01:03:27;12.60;99.90
22035;DHT22;11181;51.002;4.356;2023-03-21T01:05:54;12.50;99.90
22035;DHT22;11181;51.002;4.356;2023-03-21T01:08:32;12.50;99.90
22035;DHT22;11181;51.002;4.356;2023-03-21T01:11:01;12.50;99.90
22035;DHT22;11181;51.002;4.356;2023-03-21T01:13:29;12.60;99.90
22035;DHT22;11181;51.002;4.356;2023-03-21T01:15:56;12.70;99.90
22035;DHT22;11181;51.002;4.356;2023-03-21T01:18:25;12.70;99.90
22035;DHT22;11181;51.002;4.356;2023-03-21T01:20:54;12.70;99.90
22035;DHT22;11181;51.002;4.356;2023-03-21T01:23:21;12.70;99.90
22035;DHT22;11181;51.002;4.356;2023-03-21T01:25:51;12.70;99.90
22035;DHT22;11181;51.002;4.356;2023-03-21T01:28:19;12.70;99.90
22035;DHT22;11181;51.002;4.356;2023-03-21T01:30:46;12.70;99.90
22035;DHT22;11181;51.002;4.356;2023-03-21T01:33:13;12.80;99.90
22035;DHT22;11181;51.002;4.356;2023-03-21T01:35:41;12.80;99.90
22035;DHT22;11181;51.002;4.356;2023-03-21T01:38:08;12.80;99.90
22035;DHT22;11181;51.002;4.356;2023-03-21T01:40:36;12.90;99.90
22035;DHT22;11181;51.002;4.356;2023-03-21T01:43:18;12.90;99.90
22035;DHT22;11181;51.002;4.356;2023-03-21T01:48:52;12.90;99.90
22035;DHT22;11181;51.002;4.356;2023-03-21T01:51:22;13.00;99.90
22035;DHT22;11181;51.002;4.356;2023-03-21T01:53:50;12.90;99.90
22035;DHT22;11181;51.002;4.356;2023-03-21T01:56:22;12.90;99.90
22035;DHT22;11181;51.002;4.356;2023-03-21T01:58:53;12.90;99.90
22035;DHT22;11181;51.002;4.356;2023-03-21T02:01:21;12.90;99.90
22035;DHT22;11181;51.002;4.356;2023-03-21T02:03:49;12.90;99.90
22035;DHT22;11181;51.002;4.356;2023-03-21T02:06:28;12.90;99.90
22035;DHT22;11181;51.002;4.356;2023-03-21T02:09:02;12.80;99.90
22035;DHT22;11181;51.002;4.356;2023-03-21T02:11:29;12.80;99.90
22035;DHT22;11181;51.002;4.356;2023-03-21T02:13:59;12.60;99.90
22035;DHT22;11181;51.002;4.356;2023-03-21T02:16:41;12.50;99.90
22035;DHT22;11181;51.002;4.356;2023-03-21T02:22:51;12.70;99.90
22035;DHT22;11181;51.002;4.356;2023-03-21T02:28:39;12.50;99.90
22035;DHT22;11181;51.002;4.356;2023-03-21T02:31:29;12.40;99.90
22035;DHT22;11181;51.002;4.356;2023-03-21T02:34:40;12.40;99.90
22035;DHT22;11181;51.002;4.356;2023-03-21T02:37:20;12.30;99.90
22035;DHT22;11181;51.002;4.356;2023-03-21T02:39:58;12.50;99.90
22035;DHT22;11181;51.002;4.356;2023-03-21T02:42:38;12.50;99.90
22035;DHT22;11181;51.002;4.356;2023-03-21T02:45:15;12.50;99.90
22035;DHT22;11181;51.002;4.356;2023-03-21T02:47:46;12.60;99.90
22035;DHT22;11181;51.002;4.356;2023-03-21T02:50:21;12.60;99.90
22035;DHT22;11181;51.002;4.356;2023-03-21T02:52:52;12.50;99.90
22035;DHT22;11181;51.002;4.356;2023-03-21T02:55:22;12.50;99.90
22035;DHT22;11181;51.002;4.356;2023-03-21T02:57:51;12.50;99.90
22035;DHT22;11181;51.002;4.356;2023-03-21T03:00:21;12.60;99.90
22035;DHT22;11181;51.002;4.356;2023-03-21T03:02:49;12.70;99.90
22035;DHT22;11181;51.002;4.356;2023-03-21T03:05:18;12.80;99.90
22035;DHT22;11181;51.002;4.356;2023-03-21T03:07:57;12.70;99.90
22035;DHT22;11181;51.002;4.356;2023-03-21T03:10:43;12.80;99.90
22035;DHT22;11181;51.002;4.356;2023-03-21T03:13:24;12.70;99.90
22035;DHT22;11181;51.002;4.356;2023-03-21T03:16:05;12.60;99.90
22035;DHT22;11181;51.002;4.356;2023-03-21T03:18:43;12.70;99.90
22035;DHT22;11181;51.002;4.356;2023-03-21T03:21:18;12.90;99.90
22035;DHT22;11181;51.002;4.356;2023-03-21T03:23:50;12.80;99.90
22035;DHT22;11181;51.002;4.356;2023-03-21T03:26:24;12.80;99.90
22035;DHT22;11181;51.002;4.356;2023-03-21T03:28:53;12.80;99.90
22035;DHT22;11181;51.002;4.356;2023-03-21T03:31:24;12.80;99.90
22035;DHT22;11181;51.002;4.356;2023-03-21T03:33:55;12.80;99.90
22035;DHT22;11181;51.002;4.356;2023-03-21T03:36:27;12.90;99.90
22035;DHT22;11181;51.002;4.356;2023-03-21T03:38:59;12.80;99.90
22035;DHT22;11181;51.002;4.356;2023-03-21T03:41:28;12.90;99.90
22035;DHT22;11181;51.002;4.356;2023-03-21T03:43:58;12.90;99.90
22035;DHT22;11181;51.002;4.356;2023-03-21T03:46:29;12.90;99.90
22035;DHT22;11181;51.002;4.356;2023-03-21T03:49:00;12.90;99.90
22035;DHT22;11181;51.002;4.356;2023-03-21T03:51:31;12.70;99.90
22035;DHT22;11181;51.002;4.356;2023-03-21T03:54:03;12.80;99.90
22035;DHT22;11181;51.002;4.356;2023-03-21T03:56:32;12.70;99.90
22035;DHT22;11181;51.002;4.356;2023-03-21T03:59:01;12.60;99.90
22035;DHT22;11181;51.002;4.356;2023-03-21T04:01:30;12.60;99.90
22035;DHT22;11181;51.002;4.356;2023-03-21T04:03:56;12.60;99.90
22035;DHT22;11181;51.002;4.356;2023-03-21T04:06:25;12.50;99.90
22035;DHT22;11181;51.002;4.356;2023-03-21T04:08:53;12.40;99.90
22035;DHT22;11181;51.002;4.356;2023-03-21T04:11:22;12.50;99.90
22035;DHT22;11181;51.002;4.356;2023-03-21T04:13:49;12.60;99.90
22035;DHT22;11181;51.002;4.356;2023-03-21T04:16:16;12.60;99.90
22035;DHT22;11181;51.002;4.356;2023-03-21T04:18:43;12.60;99.90
22035;DHT22;11181;51.002;4.356;2023-03-21T04:21:12;12.70;99.90
22035;DHT22;11181;51.002;4.356;2023-03-21T04:23:40;12.60;99.90
22035;DHT22;11181;51.002;4.356;2023-03-21T04:26:07;12.60;99.90
22035;DHT22;11181;51.002;4.356;2023-03-21T04:28:36;12.70;99.90
22035;DHT22;11181;51.002;4.356;2023-03-21T04:31:05;12.70;99.90
22035;DHT22;11181;51.002;4.356;2023-03-21T04:33:32;12.70;99.90
22035;DHT22;11181;51.002;4.356;2023-03-21T04:36:03;12.70;99.90
22035;DHT22;11181;51.002;4.356;2023-03-21T04:38:31;12.70;99.90
22035;DHT22;11181;51.002;4.356;2023-03-21T04:40:58;12.80;99.90
22035;DHT22;11181;51.002;4.356;2023-03-21T04:43:25;12.90;99.90
22035;DHT22;11181;51.002;4.356;2023-03-21T04:45:54;12.90;99.90
22035;DHT22;11181;51.002;4.356;2023-03-21T04:48:21;12.90;99.90
22035;DHT22;11181;51.002;4.356;2023-03-21T04:50:49;12.90;99.90
22035;DHT22;11181;51.002;4.356;2023-03-21T04:53:16;12.80;99.90
22035;DHT22;11181;51.002;4.356;2023-03-21T04:55:43;12.90;99.90
22035;DHT22;11181;51.002;4.356;2023-03-21T04:58:10;12.80;99.90
22035;DHT22;11181;51.002;4.356;2023-03-21T05:00:37;12.90;99.90
22035;DHT22;11181;51.002;4.356;2023-03-21T05:03:07;13.00;99.90
22035;DHT22;11181;51.002;4.356;2023-03-21T05:05:35;13.00;99.90
22035;DHT22;11181;51.002;4.356;2023-03-21T05:08:03;13.10;99.90
22035;DHT22;11181;51.002;4.356;2023-03-21T05:10:30;13.20;99.90
22035;DHT22;11181;51.002;4.356;2023-03-21T05:12:57;13.10;99.90
22035;DHT22;11181;51.002;4.356;2023-03-21T05:15:24;13.10;99.90
22035;DHT22;11181;51.002;4.356;2023-03-21T05:17:51;13.00;99.90
22035;DHT22;11181;51.002;4.356;2023-03-21T05:20:20;12.90;99.90
22035;DHT22;11181;51.002;4.356;2023-03-21T05:22:47;12.90;99.90
22035;DHT22;11181;51.002;4.356;2023-03-21T05:25:16;13.00;99.90
22035;DHT22;11181;51.002;4.356;2023-03-21T05:27:58;13.00;99.90
22035;DHT22;11181;51.002;4.356;2023-03-21T05:30:26;13.00;99.90
22035;DHT22;11181;51.002;4.356;2023-03-21T05:32:53;13.10;99.90
22035;DHT22;11181;51.002;4.356;2023-03-21T05:35:22;13.20;99.90
22035;DHT22;11181;51.002;4.356;2023-03-21T05:37:49;13.20;99.90
22035;DHT22;11181;51.002;4.356;2023-03-21T05:40:16;13.20;99.90
22035;DHT22;11181;51.002;4.356;2023-03-21T05:42:43;13.30;99.90
22035;DHT22;11181;51.002;4.356;2023-03-21T05:45:12;13.30;99.90
22035;DHT22;11181;51.002;4.356;2023-03-21T05:47:38;13.20;99.90
22035;DHT22;11181;51.002;4.356;2023-03-21T05:50:06;13.20;99.90
22035;DHT22;11181;51.002;4.356;2023-03-21T05:52:35;13.20;99.90
22035;DHT22;11181;51.002;4.356;2023-03-21T05:55:02;13.20;99.90
22035;DHT22;11181;51.002;4.356;2023-03-21T05:57:29;13.20;99.90
22035;DHT22;11181;51.002;4.356;2023-03-21T05:59:59;13.20;99.90
22035;DHT22;11181;51.002;4.356;2023-03-21T06:02:26;13.00;99.90
22035;DHT22;11181;51.002;4.356;2023-03-21T06:04:53;13.00;99.90
22035;DHT22;11181;51.002;4.356;2023-03-21T06:07:21;12.90;99.90
22035;DHT22;11181;51.002;4.356;2023-03-21T06:09:49;12.80;99.90
22035;DHT22;11181;51.002;4.356;2023-03-21T06:12:16;12.80;99.90
22035;DHT22;11181;51.002;4.356;2023-03-21T06:14:43;12.80;99.90
22035;DHT22;11181;51.002;4.356;2023-03-21T06:17:10;12.80;99.90
22035;DHT22;11181;51.002;4.356;2023-03-21T06:19:37;12.60;99.90
22035;DHT22;11181;51.002;4.356;2023-03-21T06:22:04;12.50;99.90
22035;DHT22;11181;51.002;4.356;2023-03-21T06:24:31;12.50;99.90
22035;DHT22;11181;51.002;4.356;2023-03-21T06:26:59;12.40;99.90
22035;DHT22;11181;51.002;4.356;2023-03-21T06:29:26;12.30;99.90
22035;DHT22;11181;51.002;4.356;2023-03-21T06:31:53;12.30;99.90
22035;DHT22;11181;51.002;4.356;2023-03-21T06:34:20;12.40;99.90
22035;DHT22;11181;51.002;4.356;2023-03-21T06:36:47;12.50;99.90
22035;DHT22;11181;51.002;4.356;2023-03-21T06:39:16;12.40;99.90
22035;DHT22;11181;51.002;4.356;2023-03-21T06:41:43;12.30;99.90
22035;DHT22;11181;51.002;4.356;2023-03-21T06:44:12;12.20;99.90
22035;DHT22;11181;51.002;4.356;2023-03-21T06:46:39;12.00;99.90
22035;DHT22;11181;51.002;4.356;2023-03-21T06:49:06;11.90;99.90
22035;DHT22;11181;51.002;4.356;2023-03-21T06:51:33;12.00;99.90
22035;DHT22;11181;51.002;4.356;2023-03-21T06:54:00;12.00;99.90
22035;DHT22;11181;51.002;4.356;2023-03-21T06:56:26;12.00;99.90
22035;DHT22;11181;51.002;4.356;2023-03-21T06:58:53;12.10;99.90
22035;DHT22;11181;51.002;4.356;2023-03-21T07:01:22;12.20;99.90
22035;DHT22;11181;51.002;4.356;2023-03-21T07:03:49;12.20;99.90
22035;DHT22;11181;51.002;4.356;2023-03-21T07:06:18;12.20;99.90
22035;DHT22;11181;51.002;4.356;2023-03-21T07:08:45;12.30;99.90
22035;DHT22;11181;51.002;4.356;2023-03-21T07:11:13;12.30;99.90
22035;DHT22;11181;51.002;4.356;2023-03-21T07:13:40;12.30;99.90
22035;DHT22;11181;51.002;4.356;2023-03-21T07:16:08;12.30;99.90
22035;DHT22;11181;51.002;4.356;2023-03-21T07:18:37;12.30;99.90
22035;DHT22;11181;51.002;4.356;2023-03-21T07:21:04;12.30;99.90
22035;DHT22;11181;51.002;4.356;2023-03-21T07:23:31;12.20;99.90
22035;DHT22;11181;51.002;4.356;2023-03-21T07:25:59;12.20;99.90
22035;DHT22;11181;51.002;4.356;2023-03-21T07:28:26;12.20;99.90
22035;DHT22;11181;51.002;4.356;2023-03-21T07:30:55;12.10;99.90
22035;DHT22;11181;51.002;4.356;2023-03-21T07:33:23;12.20;99.90
22035;DHT22;11181;51.002;4.356;2023-03-21T07:35:52;12.20;99.90
22035;DHT22;11181;51.002;4.356;2023-03-21T07:38:20;12.20;99.90
22035;DHT22;11181;51.002;4.356;2023-03-21T07:40:47;12.20;99.90
22035;DHT22;11181;51.002;4.356;2023-03-21T07:43:15;12.30;99.90
22035;DHT22;11181;51.002;4.356;2023-03-21T07:45:42;12.30;99.90
22035;DHT22;11181;51.002;4.356;2023-03-21T07:48:10;12.20;99.90
22035;DHT22;11181;51.002;4.356;2023-03-21T07:50:38;12.20;99.90
22035;DHT22;11181;51.002;4.356;2023-03-21T07:53:06;12.20;99.90
22035;DHT22;11181;51.002;4.356;2023-03-21T07:55:33;12.10;99.90
22035;DHT22;11181;51.002;4.356;2023-03-21T07:58:01;12.10;99.90
22035;DHT22;11181;51.002;4.356;2023-03-21T08:00:28;12.20;99.90
22035;DHT22;11181;51.002;4.356;2023-03-21T08:02:56;12.20;99.90
22035;DHT22;11181;51.002;4.356;2023-03-21T08:05:25;12.30;99.90
22035;DHT22;11181;51.002;4.356;2023-03-21T08:07:53;12.40;99.90
22035;DHT22;11181;51.002;4.356;2023-03-21T08:10:22;12.50;99.90
22035;DHT22;11181;51.002;4.356;2023-03-21T08:12:49;12.40;99.90
22035;DHT22;11181;51.002;4.356;2023-03-21T08:15:16;12.50;99.90
22035;DHT22;11181;51.002;4.356;2023-03-21T08:17:43;12.50;99.90
22035;DHT22;11181;51.002;4.356;2023-03-21T08:20:13;12.60;99.90
22035;DHT22;11181;51.002;4.356;2023-03-21T08:22:41;12.60;99.90
22035;DHT22;11181;51.002;4.356;2023-03-21T08:25:11;12.60;99.90
22035;DHT22;11181;51.002;4.356;2023-03-21T08:27:41;12.50;99.90
22035;DHT22;11181;51.002;4.356;2023-03-21T08:30:09;12.60;99.90
22035;DHT22;11181;51.002;4.356;2023-03-21T08:32:37;12.60;99.90
22035;DHT22;11181;51.002;4.356;2023-03-21T08:35:05;12.70;99.90
22035;DHT22;11181;51.002;4.356;2023-03-21T08:37:34;12.70;99.90
22035;DHT22;11181;51.002;4.356;2023-03-21T08:40:01;12.70;99.90
22035;DHT22;11181;51.002;4.356;2023-03-21T08:42:31;12.80;99.90
22035;DHT22;11181;51.002;4.356;2023-03-21T08:45:00;12.80;99.90
22035;DHT22;11181;51.002;4.356;2023-03-21T08:47:27;12.80;99.90
22035;DHT22;11181;51.002;4.356;2023-03-21T08:49:54;12.80;99.90
22035;DHT22;11181;51.002;4.356;2023-03-21T08:52:20;12.80;99.90
22035;DHT22;11181;51.002;4.356;2023-03-21T08:54:47;12.70;99.90
22035;DHT22;11181;51.002;4.356;2023-03-21T08:57:14;12.80;99.90
22035;DHT22;11181;51.002;4.356;2023-03-21T08:59:41;12.80;99.90
22035;DHT22;11181;51.002;4.356;2023-03-21T09:02:12;12.90;99.90
22035;DHT22;11181;51.002;4.356;2023-03-21T09:04:39;12.90;99.90
22035;DHT22;11181;51.002;4.356;2023-03-21T09:07:06;13.00;99.90
22035;DHT22;11181;51.002;4.356;2023-03-21T09:09:35;13.10;99.90
22035;DHT22;11181;51.002;4.356;2023-03-21T09:12:03;13.10;99.90
22035;DHT22;11181;51.002;4.356;2023-03-21T09:14:30;13.10;99.90
22035;DHT22;11181;51.002;4.356;2023-03-21T09:16:57;13.10;99.90
22035;DHT22;11181;51.002;4.356;2023-03-21T09:19:25;13.20;99.90
22035;DHT22;11181;51.002;4.356;2023-03-21T09:21:53;13.20;99.90
22035;DHT22;11181;51.002;4.356;2023-03-21T09:24:20;13.20;99.90
22035;DHT22;11181;51.002;4.356;2023-03-21T09:26:47;13.30;99.90
22035;DHT22;11181;51.002;4.356;2023-03-21T09:29:16;13.30;99.90
22035;DHT22;11181;51.002;4.356;2023-03-21T09:31:44;13.30;99.90
22035;DHT22;11181;51.002;4.356;2023-03-21T09:34:11;13.30;99.90
22035;DHT22;11181;51.002;4.356;2023-03-21T09:36:42;13.40;99.90
22035;DHT22;11181;51.002;4.356;2023-03-21T09:39:12;13.40;99.90
22035;DHT22;11181;51.002;4.356;2023-03-21T09:42:02;13.40;99.90
22035;DHT22;11181;51.002;4.356;2023-03-21T09:44:41;13.50;99.90
22035;DHT22;11181;51.002;4.356;2023-03-21T09:47:16;13.70;99.90
22035;DHT22;11181;51.002;4.356;2023-03-21T09:49:49;13.80;99.90
22035;DHT22;11181;51.002;4.356;2023-03-21T09:52:23;13.70;99.90
22035;DHT22;11181;51.002;4.356;2023-03-21T09:54:51;13.70;99.90
22035;DHT22;11181;51.002;4.356;2023-03-21T09:57:28;13.80;99.90
22035;DHT22;11181;51.002;4.356;2023-03-21T09:59:58;13.60;99.90
22035;DHT22;11181;51.002;4.356;2023-03-21T10:02:34;13.70;99.90
22035;DHT22;11181;51.002;4.356;2023-03-21T10:05:11;13.60;99.90
22035;DHT22;11181;51.002;4.356;2023-03-21T10:07:45;13.70;99.90
22035;DHT22;11181;51.002;4.356;2023-03-21T10:10:18;13.70;99.90
22035;DHT22;11181;51.002;4.356;2023-03-21T10:12:46;13.80;99.90
22035;DHT22;11181;51.002;4.356;2023-03-21T10:15:17;13.60;99.90
22035;DHT22;11181;51.002;4.356;2023-03-21T10:17:47;13.60;99.90
22035;DHT22;11181;51.002;4.356;2023-03-21T10:20:18;13.50;99.90
22035;DHT22;11181;51.002;4.356;2023-03-21T10:22:48;13.60;99.90
22035;DHT22;11181;51.002;4.356;2023-03-21T10:25:18;13.80;99.90
22035;DHT22;11181;51.002;4.356;2023-03-21T10:27:46;14.00;99.90
22035;DHT22;11181;51.002;4.356;2023-03-21T10:30:22;14.20;99.90
22035;DHT22;11181;51.002;4.356;2023-03-21T10:32:51;14.20;99.90
22035;DHT22;11181;51.002;4.356;2023-03-21T10:35:18;14.00;99.90
22035;DHT22;11181;51.002;4.356;2023-03-21T10:37:47;14.00;99.90
22035;DHT22;11181;51.002;4.356;2023-03-21T10:40:15;14.00;99.90
22035;DHT22;11181;51.002;4.356;2023-03-21T10:42:43;14.10;99.90
22035;DHT22;11181;51.002;4.356;2023-03-21T10:45:15;14.30;99.90
22035;DHT22;11181;51.002;4.356;2023-03-21T10:47:47;14.40;99.90
22035;DHT22;11181;51.002;4.356;2023-03-21T10:50:15;14.40;99.90
22035;DHT22;11181;51.002;4.356;2023-03-21T10:52:48;14.50;99.90
22035;DHT22;11181;51.002;4.356;2023-03-21T10:55:19;14.60;99.90
22035;DHT22;11181;51.002;4.356;2023-03-21T10:57:51;14.80;99.90
22035;DHT22;11181;51.002;4.356;2023-03-21T11:00:20;14.90;99.90
22035;DHT22;11181;51.002;4.356;2023-03-21T11:02:49;14.90;99.90
22035;DHT22;11181;51.002;4.356;2023-03-21T11:05:20;14.70;99.90
22035;DHT22;11181;51.002;4.356;2023-03-21T11:07:57;14.60;99.90
22035;DHT22;11181;51.002;4.356;2023-03-21T11:10:28;14.90;99.90
22035;DHT22;11181;51.002;4.356;2023-03-21T11:12:57;15.10;99.90
22035;DHT22;11181;51.002;4.356;2023-03-21T11:15:29;15.20;99.90
22035;DHT22;11181;51.002;4.356;2023-03-21T11:17:56;15.00;99.90
22035;DHT22;11181;51.002;4.356;2023-03-21T11:20:24;15.00;99.90
22035;DHT22;11181;51.002;4.356;2023-03-21T11:22:54;15.10;99.90
22035;DHT22;11181;51.002;4.356;2023-03-21T11:25:26;15.10;99.90
22035;DHT22;11181;51.002;4.356;2023-03-21T11:27:56;15.30;99.90
22035;DHT22;11181;51.002;4.356;2023-03-21T11:30:25;15.60;99.90
22035;DHT22;11181;51.002;4.356;2023-03-21T11:32:54;15.80;99.90
22035;DHT22;11181;51.002;4.356;2023-03-21T11:35:24;15.60;99.90
22035;DHT22;11181;51.002;4.356;2023-03-21T11:37:53;15.60;99.90
22035;DHT22;11181;51.002;4.356;2023-03-21T11:40:24;15.80;99.90
22035;DHT22;11181;51.002;4.356;2023-03-21T11:42:52;16.20;99.90
22035;DHT22;11181;51.002;4.356;2023-03-21T11:45:21;16.50;99.90
22035;DHT22;11181;51.002;4.356;2023-03-21T11:47:50;16.60;99.90
22035;DHT22;11181;51.002;4.356;2023-03-21T11:50:19;16.70;99.90
22035;DHT22;11181;51.002;4.356;2023-03-21T11:52:58;17.00;99.90
22035;DHT22;11181;51.002;4.356;2023-03-21T11:55:37;17.10;99.90
22035;DHT22;11181;51.002;4.356;2023-03-21T11:58:20;16.90;99.90
22035;DHT22;11181;51.002;4.356;2023-03-21T12:00:55;16.90;99.90
22035;DHT22;11181;51.002;4.356;2023-03-21T12:03:47;17.00;99.90
22035;DHT22;11181;51.002;4.356;2023-03-21T12:06:28;17.00;99.90
22035;DHT22;11181;51.002;4.356;2023-03-21T12:12:08;16.60;99.90
22035;DHT22;11181;51.002;4.356;2023-03-21T12:14:43;16.50;99.90
22035;DHT22;11181;51.002;4.356;2023-03-21T12:17:20;16.40;99.90
22035;DHT22;11181;51.002;4.356;2023-03-21T12:20:10;16.30;99.90
22035;DHT22;11181;51.002;4.356;2023-03-21T12:22:48;16.00;99.90
22035;DHT22;11181;51.002;4.356;2023-03-21T12:25:25;16.00;99.90
22035;DHT22;11181;51.002;4.356;2023-03-21T12:28:04;16.00;99.90
22035;DHT22;11181;51.002;4.356;2023-03-21T12:30:46;15.90;99.90
22035;DHT22;11181;51.002;4.356;2023-03-21T12:33:24;15.90;99.90
22035;DHT22;11181;51.002;4.356;2023-03-21T12:36:09;15.70;99.90
22035;DHT22;11181;51.002;4.356;2023-03-21T12:38:45;15.70;99.90
22035;DHT22;11181;51.002;4.356;2023-03-21T12:41:26;16.00;99.90
22035;DHT22;11181;51.002;4.356;2023-03-21T12:44:00;16.10;99.90
22035;DHT22;11181;51.002;4.356;2023-03-21T12:46:32;16.40;99.90
22035;DHT22;11181;51.002;4.356;2023-03-21T12:49:04;16.60;99.90
22035;DHT22;11181;51.002;4.356;2023-03-21T12:51:36;16.60;99.90
22035;DHT22;11181;51.002;4.356;2023-03-21T12:54:11;16.60;99.90
22035;DHT22;11181;51.002;4.356;2023-03-21T12:56:46;16.70;99.90
22035;DHT22;11181;51.002;4.356;2023-03-21T12:59:28;16.60;99.90
22035;DHT22;11181;51.002;4.356;2023-03-21T13:01:59;16.50;99.90
22035;DHT22;11181;51.002;4.356;2023-03-21T13:04:38;16.40;99.90
22035;DHT22;11181;51.002;4.356;2023-03-21T13:07:09;16.60;99.90
22035;DHT22;11181;51.002;4.356;2023-03-21T13:09:39;16.60;99.90
22035;DHT22;11181;51.002;4.356;2023-03-21T13:12:19;16.60;99.90
22035;DHT22;11181;51.002;4.356;2023-03-21T13:14:58;16.60;99.90
22035;DHT22;11181;51.002;4.356;2023-03-21T13:17:33;16.60;99.90
22035;DHT22;11181;51.002;4.356;2023-03-21T13:20:07;16.50;99.90
22035;DHT22;11181;51.002;4.356;2023-03-21T13:22:39;16.60;99.90
22035;DHT22;11181;51.002;4.356;2023-03-21T13:25:16;16.30;99.90
22035;DHT22;11181;51.002;4.356;2023-03-21T13:27:50;16.30;99.90
22035;DHT22;11181;51.002;4.356;2023-03-21T13:30:21;16.40;99.90
22035;DHT22;11181;51.002;4.356;2023-03-21T13:32:54;16.30;99.90
22035;DHT22;11181;51.002;4.356;2023-03-21T13:35:23;16.20;99.90
22035;DHT22;11181;51.002;4.356;2023-03-21T13:37:56;16.30;99.90
22035;DHT22;11181;51.002;4.356;2023-03-21T13:40:25;16.30;99.90
22035;DHT22;11181;51.002;4.356;2023-03-21T13:42:54;16.40;99.90
22035;DHT22;11181;51.002;4.356;2023-03-21T13:45:29;16.40;99.90
22035;DHT22;11181;51.002;4.356;2023-03-21T13:47:58;16.30;99.90
22035;DHT22;11181;51.002;4.356;2023-03-21T13:50:28;16.20;99.90
22035;DHT22;11181;51.002;4.356;2023-03-21T13:56:18;16.00;99.90
22035;DHT22;11181;51.002;4.356;2023-03-21T13:58:57;16.00;99.90
22035;DHT22;11181;51.002;4.356;2023-03-21T14:01:31;16.00;99.90
22035;DHT22;11181;51.002;4.356;2023-03-21T14:04:01;15.90;99.90
22035;DHT22;11181;51.002;4.356;2023-03-21T14:06:34;15.70;99.90
22035;DHT22;11181;51.002;4.356;2023-03-21T14:09:02;15.60;99.90
22035;DHT22;11181;51.002;4.356;2023-03-21T14:11:31;15.60;99.90
22035;DHT22;11181;51.002;4.356;2023-03-21T14:13:59;15.50;99.90
22035;DHT22;11181;51.002;4.356;2023-03-21T14:16:28;15.30;99.90
22035;DHT22;11181;51.002;4.356;2023-03-21T14:18:59;15.20;99.90
22035;DHT22;11181;51.002;4.356;2023-03-21T14:21:28;15.20;99.90
22035;DHT22;11181;51.002;4.356;2023-03-21T14:23:58;15.00;99.90
22035;DHT22;11181;51.002;4.356;2023-03-21T14:26:26;15.00;99.90
22035;DHT22;11181;51.002;4.356;2023-03-21T14:28:54;15.10;99.90
22035;DHT22;11181;51.002;4.356;2023-03-21T14:31:21;15.10;99.90
22035;DHT22;11181;51.002;4.356;2023-03-21T14:33:52;15.20;99.90
22035;DHT22;11181;51.002;4.356;2023-03-21T14:36:23;15.20;99.90
22035;DHT22;11181;51.002;4.356;2023-03-21T14:38:56;15.20;99.90
22035;DHT22;11181;51.002;4.356;2023-03-21T14:41:26;15.10;99.90
22035;DHT22;11181;51.002;4.356;2023-03-21T14:44:26;15.20;99.90
22035;DHT22;11181;51.002;4.356;2023-03-21T14:47:00;15.30;99.90
22035;DHT22;11181;51.002;4.356;2023-03-21T14:49:30;15.40;99.90
22035;DHT22;11181;51.002;4.356;2023-03-21T14:52:00;15.40;99.90
22035;DHT22;11181;51.002;4.356;2023-03-21T14:54:29;15.40;99.90
22035;DHT22;11181;51.002;4.356;2023-03-21T14:56:59;15.40;99.90
22035;DHT22;11181;51.002;4.356;2023-03-21T14:59:31;15.40;99.90
22035;DHT22;11181;51.002;4.356;2023-03-21T15:02:02;15.40;99.90
22035;DHT22;11181;51.002;4.356;2023-03-21T15:04:31;15.30;99.90
22035;DHT22;11181;51.002;4.356;2023-03-21T15:07:00;15.20;99.90
22035;DHT22;11181;51.002;4.356;2023-03-21T15:09:31;15.10;99.90
22035;DHT22;11181;51.002;4.356;2023-03-21T15:11:58;15.00;99.90
22035;DHT22;11181;51.002;4.356;2023-03-21T15:14:31;15.00;99.90
22035;DHT22;11181;51.002;4.356;2023-03-21T15:17:00;14.90;99.90
22035;DHT22;11181;51.002;4.356;2023-03-21T15:19:32;15.00;99.90
22035;DHT22;11181;51.002;4.356;2023-03-21T15:22:08;15.00;99.90
22035;DHT22;11181;51.002;4.356;2023-03-21T15:24:38;15.10;99.90
22035;DHT22;11181;51.002;4.356;2023-03-21T15:27:11;15.20;99.90
22035;DHT22;11181;51.002;4.356;2023-03-21T15:29:39;15.30;99.90
22035;DHT22;11181;51.002;4.356;2023-03-21T15:32:13;15.40;99.90
22035;DHT22;11181;51.002;4.356;2023-03-21T15:34:42;15.40;99.90
22035;DHT22;11181;51.002;4.356;2023-03-21T15:37:15;15.30;99.90
22035;DHT22;11181;51.002;4.356;2023-03-21T15:39:43;15.30;99.90
22035;DHT22;11181;51.002;4.356;2023-03-21T15:42:27;14.90;99.90
22035;DHT22;11181;51.002;4.356;2023-03-21T15:44:56;14.80;99.90
22035;DHT22;11181;51.002;4.356;2023-03-21T15:47:40;14.80;99.90
22035;DHT22;11181;51.002;4.356;2023-03-21T15:50:15;14.80;99.90
22035;DHT22;11181;51.002;4.356;2023-03-21T15:52:42;14.70;99.90
22035;DHT22;11181;51.002;4.356;2023-03-21T15:55:17;14.70;99.90
22035;DHT22;11181;51.002;4.356;2023-03-21T15:57:51;14.70;99.90
22035;DHT22;11181;51.002;4.356;2023-03-21T16:00:36;14.70;99.90
22035;DHT22;11181;51.002;4.356;2023-03-21T16:03:07;14.80;99.90
22035;DHT22;11181;51.002;4.356;2023-03-21T16:05:37;14.90;99.90
22035;DHT22;11181;51.002;4.356;2023-03-21T16:08:05;14.90;99.90